sensor_id;sensor_type;location;lat;lon;timestamp;P1;durP1;ratioP1;P2;durP2;ratioP2
35969;SDS011;22448;51.298;6.430;2022-10-26T07:01:49;13.52;;;3.45;;
35969;SDS011;22448;51.298;6.430;2022-10-26T07:04:18;12.20;;;3.88;;
35969;SDS011;22448;51.298;6.430;2022-10-26T07:06:49;11.80;;;4.00;;
35969;SDS011;22448;51.298;6.430;2022-10-26T07:09:17;9.73;;;3.25;;
35969;SDS011;22448;51.298;6.430;2022-10-26T07:11:44;10.27;;;4.15;;
35969;SDS011;22448;51.298;6.430;2022-10-26T07:14:11;16.50;;;3.97;;
35969;SDS011;22448;51.298;6.430;2022-10-26T07:16:38;14.90;;;3.65;;
35969;SDS011;22448;51.298;6.430;2022-10-26T07:19:06;9.55;;;3.08;;
35969;SDS011;22448;51.298;6.430;2022-10-26T07:21:33;10.93;;;3.80;;
35969;SDS011;22448;51.298;6.430;2022-10-26T07:24:00;11.85;;;3.83;;
35969;SDS011;22448;51.298;6.430;2022-10-26T07:26:27;17.77;;;3.85;;
35969;SDS011;22448;51.298;6.430;2022-10-26T07:28:54;10.68;;;4.05;;
35969;SDS011;22448;51.298;6.430;2022-10-26T07:31:21;10.63;;;3.13;;
35969;SDS011;22448;51.298;6.430;2022-10-26T07:33:48;9.25;;;2.80;;
35969;SDS011;22448;51.298;6.430;2022-10-26T07:36:15;8.40;;;2.95;;
35969;SDS011;22448;51.298;6.430;2022-10-26T07:38:42;11.85;;;2.60;;
35969;SDS011;22448;51.298;6.430;2022-10-26T07:41:10;6.65;;;2.63;;
35969;SDS011;22448;51.298;6.430;2022-10-26T07:43:38;12.02;;;2.40;;
35969;SDS011;22448;51.298;6.430;2022-10-26T07:46:05;10.32;;;2.53;;
35969;SDS011;22448;51.298;6.430;2022-10-26T07:48:32;5.22;;;2.03;;
35969;SDS011;22448;51.298;6.430;2022-10-26T07:51:00;7.55;;;2.50;;
35969;SDS011;22448;51.298;6.430;2022-10-26T07:53:29;10.52;;;2.60;;
35969;SDS011;22448;51.298;6.430;2022-10-26T07:55:56;7.68;;;2.50;;
35969;SDS011;22448;51.298;6.430;2022-10-26T07:58:24;10.65;;;2.42;;
35969;SDS011;22448;51.298;6.430;2022-10-26T08:03:52;8.65;;;1.77;;
35969;SDS011;22448;51.298;6.430;2022-10-26T08:06:20;11.27;;;2.00;;
35969;SDS011;22448;51.298;6.430;2022-10-26T08:08:49;9.80;;;1.88;;
35969;SDS011;22448;51.298;6.430;2022-10-26T08:19:58;7.22;;;2.45;;
35969;SDS011;22448;51.298;6.430;2022-10-26T08:22:27;10.82;;;1.90;;
35969;SDS011;22448;51.298;6.430;2022-10-26T08:24:57;9.48;;;2.10;;
35969;SDS011;22448;51.298;6.430;2022-10-26T08:27:25;4.97;;;1.58;;
35969;SDS011;22448;51.298;6.430;2022-10-26T08:29:53;6.55;;;1.70;;
35969;SDS011;22448;51.298;6.430;2022-10-26T08:32:21;5.85;;;1.27;;
35969;SDS011;22448;51.298;6.430;2022-10-26T08:34:50;6.82;;;1.58;;
35969;SDS011;22448;51.298;6.430;2022-10-26T08:37:21;6.00;;;1.50;;
35969;SDS011;22448;51.298;6.430;2022-10-26T08:39:48;9.13;;;1.83;;
35969;SDS011;22448;51.298;6.430;2022-10-26T08:42:22;4.97;;;1.15;;
35969;SDS011;22448;51.298;6.430;2022-10-26T08:44:57;8.25;;;1.92;;
35969;SDS011;22448;51.298;6.430;2022-10-26T08:47:30;9.43;;;1.80;;
35969;SDS011;22448;51.298;6.430;2022-10-26T08:50:09;5.75;;;1.50;;
35969;SDS011;22448;51.298;6.430;2022-10-26T08:53:16;8.57;;;2.08;;
35969;SDS011;22448;51.298;6.430;2022-10-26T08:55:52;6.22;;;1.95;;
35969;SDS011;22448;51.298;6.430;2022-10-26T08:58:55;9.75;;;1.98;;
35969;SDS011;22448;51.298;6.430;2022-10-26T09:01:29;7.38;;;2.03;;
35969;SDS011;22448;51.298;6.430;2022-10-26T09:03:57;5.97;;;2.05;;
35969;SDS011;22448;51.298;6.430;2022-10-26T09:06:50;5.45;;;1.92;;
35969;SDS011;22448;51.298;6.430;2022-10-26T09:09:43;5.28;;;1.98;;
35969;SDS011;22448;51.298;6.430;2022-10-26T09:12:14;10.85;;;2.22;;
35969;SDS011;22448;51.298;6.430;2022-10-26T09:26:31;11.50;;;2.20;;
35969;SDS011;22448;51.298;6.430;2022-10-26T09:29:32;12.65;;;2.10;;
35969;SDS011;22448;51.298;6.430;2022-10-26T09:32:17;6.15;;;2.15;;
35969;SDS011;22448;51.298;6.430;2022-10-26T09:34:51;10.90;;;2.03;;
35969;SDS011;22448;51.298;6.430;2022-10-26T09:37:27;7.38;;;2.20;;
35969;SDS011;22448;51.298;6.430;2022-10-26T09:42:57;6.18;;;1.92;;
35969;SDS011;22448;51.298;6.430;2022-10-26T09:46:12;9.18;;;2.88;;
35969;SDS011;22448;51.298;6.430;2022-10-26T09:49:48;8.20;;;2.45;;
35969;SDS011;22448;51.298;6.430;2022-10-26T10:08:23;13.60;;;2.65;;
35969;SDS011;22448;51.298;6.430;2022-10-26T10:17:52;9.85;;;2.30;;
35969;SDS011;22448;51.298;6.430;2022-10-26T10:20:30;9.70;;;3.03;;
35969;SDS011;22448;51.298;6.430;2022-10-26T10:23:00;10.07;;;2.85;;
35969;SDS011;22448;51.298;6.430;2022-10-26T10:25:32;6.85;;;2.00;;
35969;SDS011;22448;51.298;6.430;2022-10-26T10:28:18;7.72;;;2.38;;
35969;SDS011;22448;51.298;6.430;2022-10-26T10:30:51;10.32;;;2.40;;
35969;SDS011;22448;51.298;6.430;2022-10-26T10:33:40;9.73;;;2.30;;
35969;SDS011;22448;51.298;6.430;2022-10-26T10:36:10;11.25;;;2.45;;
35969;SDS011;22448;51.298;6.430;2022-10-26T10:38:43;8.48;;;2.60;;
35969;SDS011;22448;51.298;6.430;2022-10-26T10:44:11;10.52;;;2.60;;
35969;SDS011;22448;51.298;6.430;2022-10-26T10:46:42;10.77;;;2.30;;
35969;SDS011;22448;51.298;6.430;2022-10-26T10:49:20;13.57;;;2.50;;
35969;SDS011;22448;51.298;6.430;2022-10-26T10:51:58;8.13;;;2.50;;
35969;SDS011;22448;51.298;6.430;2022-10-26T10:56:53;6.43;;;2.28;;
35969;SDS011;22448;51.298;6.430;2022-10-26T11:08:37;12.35;;;2.28;;
35969;SDS011;22448;51.298;6.430;2022-10-26T11:11:33;10.88;;;2.17;;
35969;SDS011;22448;51.298;6.430;2022-10-26T11:14:29;8.02;;;1.95;;
35969;SDS011;22448;51.298;6.430;2022-10-26T11:19:55;8.52;;;2.85;;
35969;SDS011;22448;51.298;6.430;2022-10-26T11:22:29;9.30;;;1.88;;
35969;SDS011;22448;51.298;6.430;2022-10-26T11:27:58;4.90;;;1.95;;
35969;SDS011;22448;51.298;6.430;2022-10-26T11:30:51;6.85;;;1.83;;
35969;SDS011;22448;51.298;6.430;2022-10-26T11:33:28;8.20;;;2.28;;
35969;SDS011;22448;51.298;6.430;2022-10-26T11:37:09;7.18;;;1.90;;
35969;SDS011;22448;51.298;6.430;2022-10-26T11:53:16;8.57;;;1.75;;
35969;SDS011;22448;51.298;6.430;2022-10-26T11:55:48;6.03;;;1.75;;
35969;SDS011;22448;51.298;6.430;2022-10-26T11:58:25;4.82;;;1.30;;
35969;SDS011;22448;51.298;6.430;2022-10-26T12:01:00;4.55;;;1.42;;
35969;SDS011;22448;51.298;6.430;2022-10-26T12:03:43;4.70;;;1.33;;
35969;SDS011;22448;51.298;6.430;2022-10-26T12:06:16;4.18;;;1.30;;
35969;SDS011;22448;51.298;6.430;2022-10-26T12:08:50;5.18;;;1.50;;
35969;SDS011;22448;51.298;6.430;2022-10-26T12:21:30;4.53;;;1.55;;
35969;SDS011;22448;51.298;6.430;2022-10-26T12:24:00;5.70;;;1.35;;
35969;SDS011;22448;51.298;6.430;2022-10-26T12:27:00;11.20;;;1.70;;
35969;SDS011;22448;51.298;6.430;2022-10-26T12:45:45;12.00;;;1.90;;
35969;SDS011;22448;51.298;6.430;2022-10-26T12:48:21;11.40;;;2.20;;
35969;SDS011;22448;51.298;6.430;2022-10-26T12:53:56;7.50;;;1.40;;
35969;SDS011;22448;51.298;6.430;2022-10-26T13:00:32;7.22;;;1.65;;
35969;SDS011;22448;51.298;6.430;2022-10-26T13:07:20;5.15;;;1.75;;
35969;SDS011;22448;51.298;6.430;2022-10-26T13:18:08;4.20;;;1.40;;
35969;SDS011;22448;51.298;6.430;2022-10-26T13:20:51;6.65;;;1.50;;
35969;SDS011;22448;51.298;6.430;2022-10-26T13:23:25;6.18;;;1.50;;
35969;SDS011;22448;51.298;6.430;2022-10-26T13:26:02;5.03;;;1.73;;
35969;SDS011;22448;51.298;6.430;2022-10-26T13:35:56;4.90;;;1.25;;
35969;SDS011;22448;51.298;6.430;2022-10-26T13:38:27;3.00;;;1.33;;
35969;SDS011;22448;51.298;6.430;2022-10-26T13:49:22;11.85;;;1.95;;
35969;SDS011;22448;51.298;6.430;2022-10-26T13:57:54;5.95;;;1.33;;
35969;SDS011;22448;51.298;6.430;2022-10-26T14:00:28;6.18;;;1.52;;
35969;SDS011;22448;51.298;6.430;2022-10-26T14:02:56;4.53;;;1.30;;
35969;SDS011;22448;51.298;6.430;2022-10-26T14:05:23;1.88;;;1.10;;
35969;SDS011;22448;51.298;6.430;2022-10-26T14:07:51;8.05;;;1.20;;
35969;SDS011;22448;51.298;6.430;2022-10-26T14:10:24;9.15;;;1.52;;
35969;SDS011;22448;51.298;6.430;2022-10-26T14:12:58;4.47;;;1.33;;
35969;SDS011;22448;51.298;6.430;2022-10-26T14:15:27;5.28;;;1.65;;
35969;SDS011;22448;51.298;6.430;2022-10-26T14:17:57;7.15;;;1.55;;
35969;SDS011;22448;51.298;6.430;2022-10-26T14:20:26;5.68;;;1.17;;
35969;SDS011;22448;51.298;6.430;2022-10-26T14:22:54;8.57;;;1.60;;
35969;SDS011;22448;51.298;6.430;2022-10-26T14:25:26;2.40;;;1.20;;
35969;SDS011;22448;51.298;6.430;2022-10-26T14:28:21;16.45;;;2.55;;
35969;SDS011;22448;51.298;6.430;2022-10-26T14:30:49;4.63;;;1.52;;
35969;SDS011;22448;51.298;6.430;2022-10-26T14:33:17;7.13;;;1.50;;
35969;SDS011;22448;51.298;6.430;2022-10-26T14:35:46;5.53;;;2.00;;
35969;SDS011;22448;51.298;6.430;2022-10-26T14:38:16;9.93;;;2.10;;
35969;SDS011;22448;51.298;6.430;2022-10-26T14:40:44;4.88;;;1.40;;
35969;SDS011;22448;51.298;6.430;2022-10-26T14:43:15;4.78;;;1.20;;
35969;SDS011;22448;51.298;6.430;2022-10-26T14:45:48;6.53;;;1.52;;
35969;SDS011;22448;51.298;6.430;2022-10-26T14:48:27;11.02;;;1.95;;
35969;SDS011;22448;51.298;6.430;2022-10-26T14:50:57;3.45;;;1.55;;
35969;SDS011;22448;51.298;6.430;2022-10-26T14:53:35;8.93;;;1.70;;
35969;SDS011;22448;51.298;6.430;2022-10-26T14:58:47;5.80;;;1.20;;
35969;SDS011;22448;51.298;6.430;2022-10-26T15:03:52;5.90;;;1.25;;
35969;SDS011;22448;51.298;6.430;2022-10-26T15:06:30;9.33;;;1.37;;
35969;SDS011;22448;51.298;6.430;2022-10-26T15:09:03;4.13;;;1.30;;
35969;SDS011;22448;51.298;6.430;2022-10-26T15:11:32;7.82;;;1.23;;
35969;SDS011;22448;51.298;6.430;2022-10-26T15:14:00;4.93;;;1.30;;
35969;SDS011;22448;51.298;6.430;2022-10-26T15:16:37;6.18;;;1.42;;
35969;SDS011;22448;51.298;6.430;2022-10-26T15:19:09;5.82;;;1.27;;
35969;SDS011;22448;51.298;6.430;2022-10-26T15:21:44;3.30;;;1.20;;
35969;SDS011;22448;51.298;6.430;2022-10-26T15:26:46;7.68;;;1.67;;
35969;SDS011;22448;51.298;6.430;2022-10-26T15:32:04;9.57;;;1.58;;
35969;SDS011;22448;51.298;6.430;2022-10-26T15:37:48;7.05;;;1.67;;
35969;SDS011;22448;51.298;6.430;2022-10-26T15:40:17;4.70;;;1.47;;
35969;SDS011;22448;51.298;6.430;2022-10-26T15:42:46;5.22;;;1.20;;
35969;SDS011;22448;51.298;6.430;2022-10-26T15:45:19;6.10;;;1.42;;
35969;SDS011;22448;51.298;6.430;2022-10-26T15:47:49;12.15;;;1.67;;
35969;SDS011;22448;51.298;6.430;2022-10-26T15:50:18;6.35;;;1.35;;
35969;SDS011;22448;51.298;6.430;2022-10-26T15:52:47;6.35;;;1.60;;
35969;SDS011;22448;51.298;6.430;2022-10-26T15:55:16;8.32;;;1.55;;
35969;SDS011;22448;51.298;6.430;2022-10-26T15:57:43;4.45;;;1.23;;
35969;SDS011;22448;51.298;6.430;2022-10-26T16:00:14;10.90;;;1.40;;
35969;SDS011;22448;51.298;6.430;2022-10-26T16:05:11;4.32;;;0.90;;
35969;SDS011;22448;51.298;6.430;2022-10-26T16:07:41;2.22;;;1.08;;
35969;SDS011;22448;51.298;6.430;2022-10-26T16:10:16;7.32;;;1.48;;
35969;SDS011;22448;51.298;6.430;2022-10-26T16:12:52;8.20;;;1.42;;
35969;SDS011;22448;51.298;6.430;2022-10-26T16:15:21;4.55;;;1.40;;
35969;SDS011;22448;51.298;6.430;2022-10-26T16:17:49;3.08;;;1.30;;
35969;SDS011;22448;51.298;6.430;2022-10-26T16:20:19;7.63;;;1.73;;
35969;SDS011;22448;51.298;6.430;2022-10-26T16:22:49;3.60;;;1.30;;
35969;SDS011;22448;51.298;6.430;2022-10-26T16:25:19;14.35;;;1.90;;
35969;SDS011;22448;51.298;6.430;2022-10-26T16:27:50;5.22;;;1.70;;
35969;SDS011;22448;51.298;6.430;2022-10-26T16:30:19;8.05;;;1.80;;
35969;SDS011;22448;51.298;6.430;2022-10-26T16:32:50;6.47;;;1.80;;
35969;SDS011;22448;51.298;6.430;2022-10-26T16:35:18;5.72;;;1.55;;
35969;SDS011;22448;51.298;6.430;2022-10-26T16:37:45;10.18;;;1.92;;
35969;SDS011;22448;51.298;6.430;2022-10-26T16:40:12;6.25;;;2.10;;
35969;SDS011;22448;51.298;6.430;2022-10-26T16:42:39;9.50;;;2.40;;
35969;SDS011;22448;51.298;6.430;2022-10-26T16:45:10;7.60;;;1.80;;
35969;SDS011;22448;51.298;6.430;2022-10-26T16:47:38;8.35;;;2.47;;
35969;SDS011;22448;51.298;6.430;2022-10-26T16:50:09;7.07;;;2.10;;
35969;SDS011;22448;51.298;6.430;2022-10-26T16:52:37;6.90;;;2.33;;
35969;SDS011;22448;51.298;6.430;2022-10-26T16:55:05;7.55;;;1.88;;
35969;SDS011;22448;51.298;6.430;2022-10-26T16:57:33;5.78;;;2.10;;
35969;SDS011;22448;51.298;6.430;2022-10-26T17:00:01;7.75;;;1.92;;
35969;SDS011;22448;51.298;6.430;2022-10-26T17:02:29;9.85;;;2.20;;
35969;SDS011;22448;51.298;6.430;2022-10-26T17:04:56;8.43;;;2.20;;
35969;SDS011;22448;51.298;6.430;2022-10-26T17:07:29;5.93;;;1.52;;
35969;SDS011;22448;51.298;6.430;2022-10-26T17:09:56;8.23;;;2.22;;
35969;SDS011;22448;51.298;6.430;2022-10-26T17:12:23;9.20;;;1.77;;
35969;SDS011;22448;51.298;6.430;2022-10-26T17:14:50;4.82;;;1.65;;
35969;SDS011;22448;51.298;6.430;2022-10-26T17:17:17;8.32;;;2.25;;
35969;SDS011;22448;51.298;6.430;2022-10-26T17:19:44;13.82;;;4.22;;
35969;SDS011;22448;51.298;6.430;2022-10-26T17:22:11;9.60;;;5.85;;
35969;SDS011;22448;51.298;6.430;2022-10-26T17:24:38;8.70;;;5.40;;
35969;SDS011;22448;51.298;6.430;2022-10-26T17:27:05;9.15;;;2.53;;
35969;SDS011;22448;51.298;6.430;2022-10-26T17:29:32;7.90;;;3.03;;
35969;SDS011;22448;51.298;6.430;2022-10-26T17:31:59;4.43;;;2.20;;
35969;SDS011;22448;51.298;6.430;2022-10-26T17:34:26;7.85;;;2.00;;
35969;SDS011;22448;51.298;6.430;2022-10-26T17:36:53;8.75;;;1.85;;
35969;SDS011;22448;51.298;6.430;2022-10-26T17:39:20;5.15;;;2.35;;
35969;SDS011;22448;51.298;6.430;2022-10-26T17:41:47;10.57;;;3.08;;
35969;SDS011;22448;51.298;6.430;2022-10-26T17:44:14;9.65;;;4.63;;
35969;SDS011;22448;51.298;6.430;2022-10-26T17:46:41;12.65;;;4.13;;
35969;SDS011;22448;51.298;6.430;2022-10-26T17:49:08;11.10;;;3.15;;
35969;SDS011;22448;51.298;6.430;2022-10-26T17:51:35;7.93;;;2.70;;
35969;SDS011;22448;51.298;6.430;2022-10-26T17:54:02;7.13;;;2.40;;
35969;SDS011;22448;51.298;6.430;2022-10-26T17:56:30;7.82;;;2.58;;
35969;SDS011;22448;51.298;6.430;2022-10-26T17:58:59;6.63;;;2.55;;
35969;SDS011;22448;51.298;6.430;2022-10-26T18:01:28;8.25;;;2.30;;
35969;SDS011;22448;51.298;6.430;2022-10-26T18:03:55;11.13;;;2.88;;
35969;SDS011;22448;51.298;6.430;2022-10-26T18:06:23;14.82;;;5.75;;
35969;SDS011;22448;51.298;6.430;2022-10-26T18:08:50;16.38;;;8.25;;
35969;SDS011;22448;51.298;6.430;2022-10-26T18:11:18;8.23;;;4.38;;
35969;SDS011;22448;51.298;6.430;2022-10-26T18:13:53;13.48;;;4.15;;
35969;SDS011;22448;51.298;6.430;2022-10-26T18:16:21;9.13;;;3.15;;
35969;SDS011;22448;51.298;6.430;2022-10-26T18:18:53;8.73;;;2.67;;
35969;SDS011;22448;51.298;6.430;2022-10-26T18:21:28;10.77;;;2.40;;
35969;SDS011;22448;51.298;6.430;2022-10-26T18:23:56;11.45;;;2.58;;
35969;SDS011;22448;51.298;6.430;2022-10-26T18:26:24;9.82;;;2.63;;
35969;SDS011;22448;51.298;6.430;2022-10-26T18:28:54;7.28;;;2.20;;
35969;SDS011;22448;51.298;6.430;2022-10-26T18:31:26;7.47;;;2.25;;
35969;SDS011;22448;51.298;6.430;2022-10-26T18:33:54;8.32;;;2.85;;
35969;SDS011;22448;51.298;6.430;2022-10-26T18:36:22;8.38;;;2.15;;
35969;SDS011;22448;51.298;6.430;2022-10-26T18:38:50;5.03;;;2.47;;
35969;SDS011;22448;51.298;6.430;2022-10-26T18:41:18;4.15;;;2.03;;
35969;SDS011;22448;51.298;6.430;2022-10-26T18:43:47;4.95;;;2.22;;
35969;SDS011;22448;51.298;6.430;2022-10-26T18:46:19;7.93;;;2.53;;
35969;SDS011;22448;51.298;6.430;2022-10-26T18:48:50;6.47;;;2.10;;
35969;SDS011;22448;51.298;6.430;2022-10-26T18:51:19;8.52;;;2.88;;
35969;SDS011;22448;51.298;6.430;2022-10-26T18:56:19;10.07;;;3.22;;
35969;SDS011;22448;51.298;6.430;2022-10-26T18:58:48;7.97;;;2.42;;
35969;SDS011;22448;51.298;6.430;2022-10-26T19:01:24;6.35;;;2.70;;
35969;SDS011;22448;51.298;6.430;2022-10-26T19:03:57;8.20;;;3.00;;
35969;SDS011;22448;51.298;6.430;2022-10-26T19:06:27;10.85;;;2.78;;
35969;SDS011;22448;51.298;6.430;2022-10-26T19:08:55;9.38;;;3.17;;
35969;SDS011;22448;51.298;6.430;2022-10-26T19:11:23;7.15;;;3.30;;
35969;SDS011;22448;51.298;6.430;2022-10-26T19:13:52;10.15;;;3.25;;
35969;SDS011;22448;51.298;6.430;2022-10-26T19:16:21;13.75;;;3.80;;
35969;SDS011;22448;51.298;6.430;2022-10-26T19:19:09;9.43;;;3.88;;
35969;SDS011;22448;51.298;6.430;2022-10-26T19:21:36;9.55;;;4.20;;
35969;SDS011;22448;51.298;6.430;2022-10-26T19:24:04;8.50;;;3.25;;
35969;SDS011;22448;51.298;6.430;2022-10-26T19:26:38;6.97;;;3.55;;
35969;SDS011;22448;51.298;6.430;2022-10-26T19:29:09;7.30;;;3.95;;
35969;SDS011;22448;51.298;6.430;2022-10-26T19:31:40;11.10;;;3.88;;
35969;SDS011;22448;51.298;6.430;2022-10-26T19:34:08;9.82;;;3.30;;
35969;SDS011;22448;51.298;6.430;2022-10-26T19:36:36;10.32;;;3.63;;
35969;SDS011;22448;51.298;6.430;2022-10-26T19:39:04;7.82;;;3.88;;
35969;SDS011;22448;51.298;6.430;2022-10-26T19:41:32;11.38;;;4.03;;
35969;SDS011;22448;51.298;6.430;2022-10-26T19:43:59;9.48;;;4.13;;
35969;SDS011;22448;51.298;6.430;2022-10-26T19:46:27;8.45;;;4.22;;
35969;SDS011;22448;51.298;6.430;2022-10-26T19:48:57;10.30;;;4.10;;
35969;SDS011;22448;51.298;6.430;2022-10-26T19:51:26;6.60;;;3.60;;
35969;SDS011;22448;51.298;6.430;2022-10-26T19:53:54;13.32;;;4.30;;
35969;SDS011;22448;51.298;6.430;2022-10-26T19:56:27;12.40;;;4.47;;
35969;SDS011;22448;51.298;6.430;2022-10-26T19:58:54;11.55;;;3.88;;
35969;SDS011;22448;51.298;6.430;2022-10-26T20:01:21;10.35;;;4.32;;
35969;SDS011;22448;51.298;6.430;2022-10-26T20:03:49;9.15;;;4.63;;
35969;SDS011;22448;51.298;6.430;2022-10-26T20:06:16;11.55;;;4.40;;
35969;SDS011;22448;51.298;6.430;2022-10-26T20:08:44;15.10;;;5.10;;
35969;SDS011;22448;51.298;6.430;2022-10-26T20:11:13;6.93;;;4.30;;
35969;SDS011;22448;51.298;6.430;2022-10-26T20:13:42;14.07;;;4.03;;
35969;SDS011;22448;51.298;6.430;2022-10-26T20:16:10;12.10;;;4.80;;
35969;SDS011;22448;51.298;6.430;2022-10-26T20:18:38;10.55;;;4.32;;
35969;SDS011;22448;51.298;6.430;2022-10-26T20:21:13;12.13;;;4.85;;
35969;SDS011;22448;51.298;6.430;2022-10-26T20:23:41;13.13;;;5.00;;
35969;SDS011;22448;51.298;6.430;2022-10-26T20:26:09;12.48;;;5.63;;
35969;SDS011;22448;51.298;6.430;2022-10-26T20:28:45;11.88;;;5.20;;
35969;SDS011;22448;51.298;6.430;2022-10-26T20:31:13;13.77;;;5.30;;
35969;SDS011;22448;51.298;6.430;2022-10-26T20:33:40;11.90;;;5.05;;
35969;SDS011;22448;51.298;6.430;2022-10-26T20:36:07;15.02;;;4.75;;
35969;SDS011;22448;51.298;6.430;2022-10-26T20:38:34;7.43;;;4.30;;
35969;SDS011;22448;51.298;6.430;2022-10-26T20:41:02;8.93;;;4.55;;
35969;SDS011;22448;51.298;6.430;2022-10-26T20:43:35;12.93;;;5.93;;
35969;SDS011;22448;51.298;6.430;2022-10-26T20:46:05;12.52;;;5.18;;
35969;SDS011;22448;51.298;6.430;2022-10-26T20:48:35;18.73;;;5.70;;
35969;SDS011;22448;51.298;6.430;2022-10-26T20:51:14;13.50;;;5.22;;
35969;SDS011;22448;51.298;6.430;2022-10-26T20:53:54;12.00;;;5.05;;
35969;SDS011;22448;51.298;6.430;2022-10-26T20:56:29;12.45;;;5.10;;
35969;SDS011;22448;51.298;6.430;2022-10-26T20:58:58;14.50;;;5.43;;
35969;SDS011;22448;51.298;6.430;2022-10-26T21:01:27;15.13;;;5.28;;
35969;SDS011;22448;51.298;6.430;2022-10-26T21:04:00;14.93;;;5.57;;
35969;SDS011;22448;51.298;6.430;2022-10-26T21:06:28;14.55;;;5.50;;
35969;SDS011;22448;51.298;6.430;2022-10-26T21:08:57;17.30;;;5.35;;
35969;SDS011;22448;51.298;6.430;2022-10-26T21:11:24;15.50;;;5.70;;
35969;SDS011;22448;51.298;6.430;2022-10-26T21:13:52;15.50;;;5.22;;
35969;SDS011;22448;51.298;6.430;2022-10-26T21:16:19;17.88;;;6.55;;
35969;SDS011;22448;51.298;6.430;2022-10-26T21:18:51;14.25;;;6.40;;
35969;SDS011;22448;51.298;6.430;2022-10-26T21:21:19;11.63;;;5.95;;
35969;SDS011;22448;51.298;6.430;2022-10-26T21:23:46;14.55;;;6.55;;
35969;SDS011;22448;51.298;6.430;2022-10-26T21:26:13;13.82;;;5.82;;
35969;SDS011;22448;51.298;6.430;2022-10-26T21:28:40;14.73;;;6.25;;
35969;SDS011;22448;51.298;6.430;2022-10-26T21:31:16;15.45;;;5.57;;
35969;SDS011;22448;51.298;6.430;2022-10-26T21:33:44;17.70;;;6.43;;
35969;SDS011;22448;51.298;6.430;2022-10-26T21:36:11;16.20;;;6.03;;
35969;SDS011;22448;51.298;6.430;2022-10-26T21:38:39;13.68;;;5.68;;
35969;SDS011;22448;51.298;6.430;2022-10-26T21:41:10;13.50;;;5.85;;
35969;SDS011;22448;51.298;6.430;2022-10-26T21:43:42;13.15;;;6.22;;
35969;SDS011;22448;51.298;6.430;2022-10-26T21:46:11;17.45;;;6.63;;
35969;SDS011;22448;51.298;6.430;2022-10-26T21:48:39;21.25;;;6.53;;
35969;SDS011;22448;51.298;6.430;2022-10-26T21:51:07;14.55;;;6.22;;
35969;SDS011;22448;51.298;6.430;2022-10-26T21:53:37;19.58;;;6.07;;
35969;SDS011;22448;51.298;6.430;2022-10-26T21:56:06;11.27;;;6.32;;
35969;SDS011;22448;51.298;6.430;2022-10-26T21:58:44;11.35;;;6.07;;
35969;SDS011;22448;51.298;6.430;2022-10-26T22:01:16;15.50;;;6.10;;
35969;SDS011;22448;51.298;6.430;2022-10-26T22:03:45;15.40;;;5.22;;
35969;SDS011;22448;51.298;6.430;2022-10-26T22:06:15;10.05;;;4.95;;
35969;SDS011;22448;51.298;6.430;2022-10-26T22:08:48;12.80;;;5.57;;
35969;SDS011;22448;51.298;6.430;2022-10-26T22:11:19;17.40;;;5.45;;
35969;SDS011;22448;51.298;6.430;2022-10-26T22:13:48;10.23;;;4.85;;
35969;SDS011;22448;51.298;6.430;2022-10-26T22:16:23;11.90;;;5.70;;
35969;SDS011;22448;51.298;6.430;2022-10-26T22:18:55;11.25;;;5.10;;
35969;SDS011;22448;51.298;6.430;2022-10-26T22:21:25;14.60;;;5.32;;
35969;SDS011;22448;51.298;6.430;2022-10-26T22:23:53;14.32;;;5.25;;
35969;SDS011;22448;51.298;6.430;2022-10-26T22:26:21;15.63;;;6.57;;
35969;SDS011;22448;51.298;6.430;2022-10-26T22:28:51;13.73;;;5.13;;
35969;SDS011;22448;51.298;6.430;2022-10-26T22:31:20;10.30;;;5.53;;
35969;SDS011;22448;51.298;6.430;2022-10-26T22:34:03;15.57;;;5.30;;
35969;SDS011;22448;51.298;6.430;2022-10-26T22:36:33;10.63;;;5.28;;
35969;SDS011;22448;51.298;6.430;2022-10-26T22:39:01;11.93;;;5.97;;
35969;SDS011;22448;51.298;6.430;2022-10-26T22:41:29;13.50;;;6.20;;
35969;SDS011;22448;51.298;6.430;2022-10-26T22:43:56;13.40;;;6.15;;
35969;SDS011;22448;51.298;6.430;2022-10-26T22:46:24;19.40;;;6.82;;
35969;SDS011;22448;51.298;6.430;2022-10-26T22:48:53;12.35;;;6.53;;
35969;SDS011;22448;51.298;6.430;2022-10-26T22:51:22;24.10;;;8.25;;
35969;SDS011;22448;51.298;6.430;2022-10-26T22:53:54;19.80;;;8.95;;
35969;SDS011;22448;51.298;6.430;2022-10-26T22:56:22;20.65;;;8.23;;
35969;SDS011;22448;51.298;6.430;2022-10-26T22:58:52;21.77;;;8.65;;
35969;SDS011;22448;51.298;6.430;2022-10-26T23:01:23;29.23;;;8.52;;
35969;SDS011;22448;51.298;6.430;2022-10-26T23:03:52;27.20;;;9.02;;
35969;SDS011;22448;51.298;6.430;2022-10-26T23:06:23;23.38;;;8.23;;
35969;SDS011;22448;51.298;6.430;2022-10-26T23:08:51;25.77;;;8.27;;
35969;SDS011;22448;51.298;6.430;2022-10-26T23:11:18;27.70;;;7.93;;
35969;SDS011;22448;51.298;6.430;2022-10-26T23:13:47;22.83;;;7.47;;
35969;SDS011;22448;51.298;6.430;2022-10-26T23:16:18;21.70;;;7.00;;
35969;SDS011;22448;51.298;6.430;2022-10-26T23:18:46;20.33;;;6.93;;
35969;SDS011;22448;51.298;6.430;2022-10-26T23:21:14;23.13;;;7.40;;
35969;SDS011;22448;51.298;6.430;2022-10-26T23:23:41;21.98;;;7.13;;
35969;SDS011;22448;51.298;6.430;2022-10-26T23:26:09;18.00;;;7.07;;
35969;SDS011;22448;51.298;6.430;2022-10-26T23:28:39;15.60;;;7.38;;
35969;SDS011;22448;51.298;6.430;2022-10-26T23:31:07;18.15;;;6.30;;
35969;SDS011;22448;51.298;6.430;2022-10-26T23:33:48;17.35;;;6.88;;
35969;SDS011;22448;51.298;6.430;2022-10-26T23:36:16;15.25;;;6.93;;
35969;SDS011;22448;51.298;6.430;2022-10-26T23:38:44;16.98;;;7.05;;
35969;SDS011;22448;51.298;6.430;2022-10-26T23:41:11;14.57;;;6.22;;
35969;SDS011;22448;51.298;6.430;2022-10-26T23:43:39;21.75;;;7.30;;
35969;SDS011;22448;51.298;6.430;2022-10-26T23:46:06;14.77;;;6.32;;
35969;SDS011;22448;51.298;6.430;2022-10-26T23:48:33;21.08;;;7.25;;
35969;SDS011;22448;51.298;6.430;2022-10-26T23:51:00;18.55;;;6.40;;
35969;SDS011;22448;51.298;6.430;2022-10-26T23:53:27;16.33;;;6.47;;
35969;SDS011;22448;51.298;6.430;2022-10-26T23:55:54;16.70;;;5.60;;
35969;SDS011;22448;51.298;6.430;2022-10-26T23:58:21;13.63;;;5.43;;
